Time;durP1;ratioP1;P1;durP2;ratioP2;P2;SDS_P1;SDS_P2;PMS_P1;PMS_P2;Temp;Humidity;BMP_temperature;BMP_pressure;BME280_temperature;BME280_humidity;BME280_pressure;Samples;Min_cycle;Max_cycle;Signal;HPM_P1;HPM_P2
2021/12/07 00:01:58;;;;;;;32.63;15.23;;;1.70;99.90;;;;;;5095671;28;20265;-66
2021/12/07 00:04:24;;;;;;;27.30;14.40;;;1.70;99.90;;;;;;5102230;28;20220;-66
2021/12/07 00:06:50;;;;;;;26.20;13.73;;;1.70;99.90;;;;;;5102344;28;20214;-69
2021/12/07 00:09:17;;;;;;;26.77;14.47;;;1.70;99.90;;;;;;5094734;28;20237;-65
2021/12/07 00:11:44;;;;;;;24.80;12.80;;;1.70;99.90;;;;;;5100343;28;20170;-67
2021/12/07 00:14:21;;;;;;;25.53;14.03;;;1.70;99.90;;;;;;5102450;28;20681;-64
2021/12/07 00:16:47;;;;;;;25.20;13.03;;;1.70;99.90;;;;;;5092289;28;20607;-65
2021/12/07 00:19:13;;;;;;;22.73;12.87;;;1.60;99.90;;;;;;5095621;28;20243;-66
2021/12/07 00:21:42;;;;;;;23.90;12.77;;;1.60;99.90;;;;;;5096144;28;20225;-65
2021/12/07 00:24:08;;;;;;;22.43;11.40;;;1.70;99.90;;;;;;5096593;28;20171;-66
2021/12/07 00:26:34;;;;;;;22.33;13.07;;;1.80;99.90;;;;;;5096424;28;20195;-64
2021/12/07 00:29:03;;;;;;;23.27;11.90;;;1.80;99.90;;;;;;5096199;28;20163;-64
2021/12/07 00:31:37;;;;;;;18.57;10.93;;;1.80;99.90;;;;;;5096272;28;20611;-64
2021/12/07 00:36:44;;;;;;;22.50;11.43;;;1.70;99.90;;;;;;5092853;28;20205;-73
2021/12/07 00:39:10;;;;;;;21.27;11.47;;;1.70;99.90;;;;;;5092378;28;20226;-66
2021/12/07 00:41:36;;;;;;;24.13;11.83;;;1.70;99.90;;;;;;5096087;28;20185;-66
2021/12/07 00:44:02;;;;;;;20.83;11.73;;;1.70;99.90;;;;;;5095440;28;20167;-66
2021/12/07 00:46:29;;;;;;;24.30;11.30;;;1.70;99.90;;;;;;5116228;28;20194;-65
2021/12/07 00:48:55;;;;;;;20.20;10.80;;;1.70;99.90;;;;;;5116070;28;20162;-65
2021/12/07 00:51:20;;;;;;;24.03;11.57;;;1.60;99.90;;;;;;5116280;28;20180;-65
2021/12/07 00:53:46;;;;;;;21.13;11.10;;;1.70;99.90;;;;;;5115823;28;20204;-65
2021/12/07 00:56:12;;;;;;;23.60;12.07;;;1.70;99.90;;;;;;5116740;28;20158;-66
2021/12/07 00:58:38;;;;;;;19.73;11.40;;;1.80;99.90;;;;;;5116547;28;20574;-66
2021/12/07 01:01:07;;;;;;;21.13;11.63;;;1.80;99.90;;;;;;5116292;28;20159;-65
2021/12/07 01:03:33;;;;;;;20.70;11.07;;;1.70;99.90;;;;;;5116065;28;20170;-66
2021/12/07 01:06:29;;;;;;;20.60;10.47;;;1.70;99.90;;;;;;5115492;28;20194;-67
2021/12/07 01:25:06;;;;;;;18.60;10.60;;;1.70;99.90;;;;;;5094807;28;20177;-67
2021/12/07 01:27:31;;;;;;;20.30;10.77;;;1.70;99.90;;;;;;5094921;28;20210;-66
2021/12/07 01:30:07;;;;;;;19.30;10.77;;;1.60;99.90;;;;;;5094624;28;20159;-66
2021/12/07 01:48:10;;;;;;;20.83;10.97;;;1.70;99.90;;;;;;5091573;28;20246;-67
2021/12/07 02:01:07;;;;;;;18.53;10.97;;;1.70;99.90;;;;;;5095699;28;20159;-65
2021/12/07 02:03:33;;;;;;;21.00;11.57;;;1.70;99.90;;;;;;5094045;28;20156;-64
2021/12/07 02:05:59;;;;;;;18.83;10.03;;;1.70;99.90;;;;;;5094442;28;20267;-66
2021/12/07 02:08:25;;;;;;;18.37;10.97;;;1.70;99.90;;;;;;5094504;28;20205;-65
2021/12/07 02:10:55;;;;;;;22.30;10.80;;;1.70;99.90;;;;;;5094414;28;20170;-66
2021/12/07 02:15:56;;;;;;;18.07;9.77;;;1.70;99.90;;;;;;5090683;28;20217;-67
2021/12/07 02:18:23;;;;;;;22.20;10.43;;;1.60;99.90;;;;;;5094058;28;20158;-66
2021/12/07 02:20:50;;;;;;;20.30;11.20;;;1.60;99.90;;;;;;5094528;28;20159;-65
2021/12/07 02:23:16;;;;;;;23.03;10.97;;;1.70;99.90;;;;;;5093051;28;20175;-65
2021/12/07 02:25:43;;;;;;;20.27;10.97;;;1.70;99.90;;;;;;5093854;28;20155;-66
2021/12/07 02:28:13;;;;;;;20.57;10.67;;;1.70;99.90;;;;;;5093934;28;20167;-65
2021/12/07 02:30:41;;;;;;;22.53;11.73;;;1.70;99.90;;;;;;5089374;28;20183;-65
2021/12/07 02:33:08;;;;;;;19.03;10.93;;;1.60;99.90;;;;;;5093886;28;20214;-65
2021/12/07 02:35:34;;;;;;;17.87;9.70;;;1.60;99.90;;;;;;5093408;28;20215;-65
2021/12/07 02:38:00;;;;;;;22.17;10.13;;;1.60;99.90;;;;;;5094053;28;20546;-65
2021/12/07 02:40:26;;;;;;;20.80;10.60;;;1.70;99.90;;;;;;5094037;28;20170;-65
2021/12/07 02:42:52;;;;;;;18.57;10.83;;;1.70;99.90;;;;;;5093815;28;20509;-65
2021/12/07 02:45:20;;;;;;;23.20;11.97;;;1.70;99.90;;;;;;5093957;28;20163;-66
2021/12/07 02:47:46;;;;;;;20.90;11.33;;;1.80;99.90;;;;;;5102933;28;20190;-66
2021/12/07 02:50:13;;;;;;;22.30;11.90;;;1.70;99.90;;;;;;5099419;28;20178;-66
2021/12/07 02:52:39;;;;;;;20.07;10.77;;;1.70;99.90;;;;;;5101792;28;20175;-66
2021/12/07 02:55:06;;;;;;;23.73;11.53;;;1.70;99.90;;;;;;5089949;28;20554;-65
2021/12/07 02:57:33;;;;;;;18.27;10.13;;;1.80;99.90;;;;;;5093837;28;21868;-65
2021/12/07 03:00:06;;;;;;;20.33;11.57;;;1.70;99.90;;;;;;5113652;28;20162;-65
2021/12/07 03:02:37;;;;;;;22.30;10.90;;;1.70;99.90;;;;;;5113601;28;20212;-66
2021/12/07 03:05:20;;;;;;;20.43;11.37;;;1.70;99.90;;;;;;5114162;28;20151;-66
2021/12/07 03:26:42;;;;;;;22.63;11.30;;;1.60;99.90;;;;;;5073141;28;20726;-66
2021/12/07 03:29:08;;;;;;;24.83;11.63;;;1.70;99.90;;;;;;5073039;28;20251;-67
2021/12/07 03:31:34;;;;;;;21.03;11.03;;;1.70;99.90;;;;;;5077064;28;20205;-65
2021/12/07 03:34:01;;;;;;;22.40;11.93;;;1.60;99.90;;;;;;5076966;28;20163;-66
2021/12/07 03:36:28;;;;;;;25.57;12.10;;;1.80;99.90;;;;;;5076977;28;20628;-67
2021/12/07 03:38:54;;;;;;;24.03;11.60;;;1.60;99.90;;;;;;5077208;28;20167;-64
2021/12/07 03:41:20;;;;;;;23.03;11.43;;;1.60;99.90;;;;;;5077451;28;20237;-65
2021/12/07 03:43:48;;;;;;;24.60;11.47;;;1.60;99.90;;;;;;5076783;28;20254;-67
2021/12/07 03:46:14;;;;;;;23.00;12.17;;;1.70;99.90;;;;;;5076756;28;20256;-65
2021/12/07 03:48:41;;;;;;;22.77;12.43;;;1.60;99.90;;;;;;5077259;28;20582;-65
2021/12/07 03:51:07;;;;;;;24.87;12.03;;;1.50;99.90;;;;;;5077141;28;20160;-65
2021/12/07 03:53:34;;;;;;;20.97;11.37;;;1.60;99.90;;;;;;5077473;28;20178;-65
2021/12/07 03:56:01;;;;;;;22.17;11.37;;;1.70;99.90;;;;;;5076762;28;20221;-65
2021/12/07 03:58:26;;;;;;;24.13;12.67;;;1.70;99.90;;;;;;5077412;28;20644;-64
2021/12/07 04:00:52;;;;;;;25.37;11.37;;;1.70;99.90;;;;;;5076772;28;20238;-65
2021/12/07 04:03:19;;;;;;;21.03;11.30;;;1.70;99.90;;;;;;5076784;28;20172;-66
2021/12/07 04:05:49;;;;;;;23.77;11.77;;;1.70;99.90;;;;;;5076805;28;20163;-67
2021/12/07 04:08:18;;;;;;;24.27;11.53;;;1.70;99.90;;;;;;5076571;28;20557;-64
2021/12/07 04:10:44;;;;;;;23.33;11.13;;;1.70;99.90;;;;;;5076361;28;20159;-65
2021/12/07 04:13:10;;;;;;;22.03;11.70;;;1.60;99.90;;;;;;5076439;28;20175;-64
2021/12/07 04:15:36;;;;;;;18.93;10.60;;;1.70;99.90;;;;;;5092688;28;20608;-66
2021/12/07 04:18:03;;;;;;;19.53;10.33;;;1.70;99.90;;;;;;5096326;28;20575;-64
2021/12/07 04:20:29;;;;;;;22.30;10.80;;;1.70;99.90;;;;;;5096694;28;20446;-65
2021/12/07 04:22:54;;;;;;;19.87;10.50;;;1.60;99.90;;;;;;5078648;28;20668;-65
2021/12/07 04:25:23;;;;;;;19.47;10.47;;;1.50;99.90;;;;;;5096259;28;20160;-65
2021/12/07 04:27:50;;;;;;;18.53;10.03;;;1.60;99.90;;;;;;5096168;28;20278;-65
2021/12/07 04:30:22;;;;;;;19.90;10.67;;;1.50;99.90;;;;;;5078579;28;20220;-64
2021/12/07 04:32:48;;;;;;;21.40;11.20;;;1.40;99.90;;;;;;5096787;28;20175;-64
2021/12/07 04:35:14;;;;;;;20.47;10.13;;;1.40;99.90;;;;;;5096722;28;20279;-66
2021/12/07 04:37:40;;;;;;;21.87;10.20;;;1.40;99.90;;;;;;5078210;28;20175;-65
2021/12/07 04:40:09;;;;;;;21.87;11.13;;;1.30;99.90;;;;;;5096159;28;20498;-65
2021/12/07 04:42:35;;;;;;;21.83;11.53;;;1.50;99.90;;;;;;5095544;28;20652;-65
2021/12/07 04:45:05;;;;;;;25.30;11.83;;;1.30;99.90;;;;;;5096218;28;20258;-65
2021/12/07 04:50:22;;;;;;;21.70;12.10;;;1.30;99.90;;;;;;5096418;28;20214;-66
2021/12/07 04:58:10;;;;;;;27.47;11.70;;;1.40;99.90;;;;;;5096159;28;20174;-64
2021/12/07 05:00:36;;;;;;;27.40;12.60;;;1.30;99.90;;;;;;5095784;28;20155;-65
2021/12/07 05:03:07;;;;;;;20.77;10.77;;;1.30;99.90;;;;;;5077178;28;20190;-64
2021/12/07 05:05:39;;;;;;;23.40;12.33;;;1.20;99.90;;;;;;5096192;28;20615;-65
2021/12/07 05:08:09;;;;;;;22.67;11.60;;;1.20;99.90;;;;;;5096116;28;20159;-65
2021/12/07 05:40:10;;;;;;;19.37;10.43;;;1.10;99.90;;;;;;5115549;28;20227;-65
2021/12/07 05:42:38;;;;;;;23.93;11.97;;;1.10;99.90;;;;;;5115376;28;20194;-65
2021/12/07 05:45:06;;;;;;;23.20;12.03;;;1.00;99.90;;;;;;5115137;28;20573;-65
2021/12/07 05:47:31;;;;;;;20.17;10.83;;;1.10;99.90;;;;;;5115289;28;20224;-65
2021/12/07 05:49:57;;;;;;;20.37;10.37;;;1.10;99.90;;;;;;5115318;28;20173;-65
2021/12/07 05:52:23;;;;;;;21.83;11.40;;;1.10;99.90;;;;;;5095810;28;20174;-65
2021/12/07 05:54:49;;;;;;;22.33;11.47;;;1.10;99.90;;;;;;5115386;28;20211;-66
2021/12/07 05:57:14;;;;;;;20.00;10.97;;;1.10;99.90;;;;;;5114914;28;20170;-65
2021/12/07 05:59:41;;;;;;;22.57;12.70;;;1.00;99.90;;;;;;5097057;28;20264;-65
2021/12/07 06:02:07;;;;;;;18.73;10.27;;;1.00;99.90;;;;;;5114678;28;20522;-64
2021/12/07 06:04:32;;;;;;;23.57;11.87;;;1.10;99.90;;;;;;5107959;28;20216;-66
2021/12/07 06:06:59;;;;;;;24.23;11.30;;;1.10;99.90;;;;;;5094610;28;20198;-65
2021/12/07 06:09:26;;;;;;;51.63;20.73;;;1.00;99.90;;;;;;5094756;28;20555;-66
2021/12/07 06:11:53;;;;;;;21.80;12.60;;;1.00;99.90;;;;;;5094089;28;20159;-66
2021/12/07 06:14:21;;;;;;;27.20;13.27;;;1.00;99.90;;;;;;5094101;28;20159;-64
2021/12/07 06:16:47;;;;;;;24.23;11.77;;;1.00;99.90;;;;;;5094480;28;20261;-64
2021/12/07 06:19:14;;;;;;;23.60;12.50;;;0.90;99.90;;;;;;5093975;28;20155;-64
2021/12/07 06:21:40;;;;;;;25.33;12.47;;;0.90;99.90;;;;;;5094251;28;20166;-64
2021/12/07 06:24:06;;;;;;;21.10;11.17;;;1.00;99.90;;;;;;5108012;28;20174;-65
2021/12/07 06:26:34;;;;;;;27.40;12.30;;;0.90;99.90;;;;;;5114192;28;20696;-65
2021/12/07 06:29:00;;;;;;;25.70;13.67;;;1.00;99.90;;;;;;5114440;28;20181;-65
2021/12/07 06:31:26;;;;;;;23.70;11.87;;;1.00;99.90;;;;;;5114911;28;20174;-64
2021/12/07 06:33:52;;;;;;;20.90;11.13;;;0.90;99.90;;;;;;5114175;28;20251;-65
2021/12/07 06:36:18;;;;;;;24.43;11.27;;;1.00;99.90;;;;;;5090564;28;20222;-66
2021/12/07 06:38:45;;;;;;;22.67;11.70;;;1.00;99.90;;;;;;5093636;28;20167;-65
2021/12/07 06:41:10;;;;;;;23.80;12.97;;;0.90;99.90;;;;;;5094040;28;20190;-65
2021/12/07 06:43:37;;;;;;;20.93;12.47;;;0.90;99.90;;;;;;5075878;28;20594;-66
2021/12/07 06:46:02;;;;;;;25.20;12.17;;;0.90;99.90;;;;;;5093820;28;20243;-65
2021/12/07 06:48:28;;;;;;;20.63;11.40;;;0.80;99.90;;;;;;5075103;28;20182;-64
2021/12/07 06:50:54;;;;;;;26.07;11.80;;;0.80;99.90;;;;;;5093419;28;20242;-65
2021/12/07 06:53:20;;;;;;;24.90;12.43;;;0.90;99.90;;;;;;5090486;28;20273;-66
2021/12/07 06:55:45;;;;;;;24.27;11.83;;;0.90;99.90;;;;;;5088998;28;20162;-66
2021/12/07 06:58:11;;;;;;;25.00;12.70;;;0.90;99.90;;;;;;5073677;28;20166;-65
2021/12/07 07:00:38;;;;;;;25.47;12.90;;;0.90;99.90;;;;;;5073551;28;20229;-65
2021/12/07 07:03:03;;;;;;;21.37;12.00;;;1.00;99.90;;;;;;5073498;28;20247;-65
2021/12/07 07:05:30;;;;;;;25.20;12.17;;;0.90;99.90;;;;;;5073319;28;20247;-66
2021/12/07 07:07:56;;;;;;;23.57;12.87;;;0.90;99.90;;;;;;5073316;28;20615;-64
2021/12/07 07:10:22;;;;;;;26.17;12.20;;;0.90;99.90;;;;;;5079934;28;20277;-64
2021/12/07 07:12:48;;;;;;;22.70;12.07;;;0.90;99.90;;;;;;5092922;28;20198;-64
2021/12/07 07:15:14;;;;;;;28.10;13.27;;;0.90;99.90;;;;;;5093316;28;20158;-66
2021/12/07 07:17:40;;;;;;;22.30;12.23;;;0.90;99.90;;;;;;5092971;28;20175;-65
2021/12/07 07:20:09;;;;;;;25.40;12.83;;;0.90;99.90;;;;;;5088761;28;20174;-64
2021/12/07 07:22:35;;;;;;;25.63;12.10;;;0.90;99.90;;;;;;5090623;28;20202;-65
2021/12/07 07:25:03;;;;;;;24.33;11.80;;;0.90;99.90;;;;;;5093930;28;20288;-67
2021/12/07 07:27:28;;;;;;;24.43;13.17;;;0.90;99.90;;;;;;5093003;28;20536;-65
2021/12/07 07:29:54;;;;;;;23.63;12.13;;;0.90;99.90;;;;;;5088617;28;20183;-65
2021/12/07 07:32:20;;;;;;;27.77;12.77;;;1.00;99.90;;;;;;5092606;28;20215;-64
2021/12/07 07:34:45;;;;;;;23.90;12.70;;;0.90;99.90;;;;;;5085413;28;20722;-65
2021/12/07 07:37:11;;;;;;;23.30;12.37;;;1.00;99.90;;;;;;5093357;28;20551;-64
2021/12/07 07:39:39;;;;;;;23.10;11.87;;;0.90;99.90;;;;;;5097023;28;20249;-66
2021/12/07 07:42:05;;;;;;;25.50;13.93;;;0.90;99.90;;;;;;5100870;28;20174;-66
2021/12/07 07:44:30;;;;;;;27.23;13.03;;;0.90;99.90;;;;;;5095160;28;20201;-65
2021/12/07 07:46:56;;;;;;;29.63;13.20;;;0.80;99.90;;;;;;5095216;28;20590;-64
2021/12/07 07:49:22;;;;;;;25.13;12.77;;;0.90;99.90;;;;;;5075508;28;20209;-64
2021/12/07 07:51:47;;;;;;;25.50;13.33;;;0.90;99.90;;;;;;5093035;28;20293;-66
2021/12/07 07:54:14;;;;;;;30.07;15.17;;;1.00;99.90;;;;;;5093398;28;20156;-65
2021/12/07 07:56:40;;;;;;;27.30;13.97;;;1.00;99.90;;;;;;5087454;28;20179;-65
2021/12/07 07:59:06;;;;;;;28.00;13.83;;;1.10;99.90;;;;;;5092546;28;20158;-64
2021/12/07 08:01:32;;;;;;;26.80;12.27;;;1.10;99.90;;;;;;5092734;28;20513;-64
2021/12/07 08:04:00;;;;;;;24.27;12.53;;;1.10;99.90;;;;;;5092559;28;20642;-65
2021/12/07 08:06:25;;;;;;;33.07;13.77;;;1.10;99.90;;;;;;5092845;28;20206;-65
2021/12/07 08:08:53;;;;;;;27.57;12.40;;;1.10;99.90;;;;;;5088931;28;20520;-64
2021/12/07 08:11:18;;;;;;;34.80;15.80;;;1.20;99.90;;;;;;5092469;28;20163;-64
2021/12/07 08:13:44;;;;;;;24.40;13.20;;;1.20;99.90;;;;;;5092596;28;20217;-67
2021/12/07 08:16:15;;;;;;;32.10;15.07;;;1.30;99.90;;;;;;5089478;28;20177;-66
2021/12/07 08:18:43;;;;;;;24.70;12.53;;;1.30;99.90;;;;;;5096965;28;20577;-65
2021/12/07 08:21:09;;;;;;;26.87;14.83;;;1.40;99.90;;;;;;5107120;28;20193;-65
2021/12/07 08:23:35;;;;;;;23.33;12.80;;;1.40;99.90;;;;;;5116688;28;20162;-65
2021/12/07 08:26:01;;;;;;;44.70;24.70;;;1.40;99.90;;;;;;5116608;28;20198;-65
2021/12/07 08:28:27;;;;;;;29.77;15.37;;;1.40;99.90;;;;;;5112715;28;20277;-67
2021/12/07 08:30:53;;;;;;;22.20;13.23;;;1.40;99.90;;;;;;5116709;28;20257;-66
2021/12/07 08:33:19;;;;;;;25.43;14.10;;;1.60;99.90;;;;;;5112285;28;20174;-65
2021/12/07 08:35:45;;;;;;;23.37;13.43;;;1.50;99.90;;;;;;5091899;28;20297;-64
2021/12/07 08:38:10;;;;;;;24.73;12.40;;;1.60;99.90;;;;;;5077436;28;20311;-65
2021/12/07 08:40:39;;;;;;;22.53;12.40;;;1.60;99.90;;;;;;5094849;28;20202;-65
2021/12/07 08:43:06;;;;;;;24.47;12.93;;;1.70;99.90;;;;;;5116682;28;20546;-65
2021/12/07 08:45:33;;;;;;;22.17;12.77;;;1.70;99.90;;;;;;5116501;28;20259;-65
2021/12/07 08:48:00;;;;;;;26.60;13.03;;;1.70;99.90;;;;;;5116061;28;20328;-66
2021/12/07 08:50:29;;;;;;;26.75;13.70;;;1.70;99.90;;;;;;5116027;28;20379;-64
2021/12/07 08:53:02;;;;;;;18.90;8.67;;;1.80;99.90;;;;;;5097084;28;20187;-65
2021/12/07 09:01:00;;;;;;;20.13;10.87;;;1.80;99.90;;;;;;5090958;28;20201;-67
2021/12/07 09:03:26;;;;;;;27.53;12.80;;;1.80;99.90;;;;;;5099516;28;20193;-65
2021/12/07 09:05:52;;;;;;;21.17;10.90;;;1.90;99.90;;;;;;5096603;28;20271;-67
2021/12/07 09:08:18;;;;;;;20.33;11.43;;;1.90;99.90;;;;;;5095496;28;20163;-65
2021/12/07 09:10:44;;;;;;;24.30;12.23;;;1.90;99.90;;;;;;5095921;28;20240;-66
2021/12/07 09:13:10;;;;;;;21.00;11.80;;;1.90;99.90;;;;;;5096645;28;20159;-65
2021/12/07 09:15:37;;;;;;;20.03;11.20;;;2.00;99.90;;;;;;5096176;28;20155;-66
2021/12/07 09:18:03;;;;;;;24.87;12.33;;;2.10;99.90;;;;;;5088932;28;20178;-65
2021/12/07 09:20:30;;;;;;;21.83;11.67;;;2.10;99.90;;;;;;5096022;28;20575;-65
2021/12/07 09:22:55;;;;;;;25.63;12.00;;;2.00;99.90;;;;;;5095578;28;20268;-65
2021/12/07 09:25:21;;;;;;;26.63;13.50;;;2.10;99.90;;;;;;5115980;28;20190;-65
2021/12/07 09:27:47;;;;;;;26.87;13.53;;;2.10;99.90;;;;;;5116205;28;20202;-66
2021/12/07 09:30:15;;;;;;;26.37;13.53;;;2.10;99.90;;;;;;5090946;28;20631;-66
2021/12/07 09:32:41;;;;;;;25.53;13.17;;;2.20;99.90;;;;;;5077660;28;20190;-67
2021/12/07 09:35:08;;;;;;;24.97;13.20;;;2.20;99.90;;;;;;5077207;28;20256;-65
2021/12/07 09:37:35;;;;;;;23.47;12.00;;;2.30;99.90;;;;;;5095367;28;20292;-67
2021/12/07 09:40:03;;;;;;;26.40;13.30;;;2.30;99.90;;;;;;5071649;28;20190;-66
2021/12/07 09:42:29;;;;;;;33.47;16.83;;;2.20;99.90;;;;;;5091880;28;20268;-68
2021/12/07 09:44:55;;;;;;;26.50;14.07;;;2.20;99.90;;;;;;5095060;28;20167;-65
2021/12/07 09:47:20;;;;;;;23.83;13.03;;;2.30;99.90;;;;;;5091177;28;20202;-65
2021/12/07 09:49:46;;;;;;;35.17;17.07;;;2.40;99.90;;;;;;5094617;28;20198;-64
2021/12/07 09:52:12;;;;;;;24.33;13.13;;;2.50;99.90;;;;;;5094884;28;20181;-65
2021/12/07 09:54:37;;;;;;;24.07;13.27;;;2.40;99.90;;;;;;5094284;28;20489;-65
2021/12/07 09:57:04;;;;;;;21.70;11.93;;;2.40;99.90;;;;;;5094196;28;20266;-65
2021/12/07 09:59:31;;;;;;;30.57;13.00;;;2.40;99.90;;;;;;5089940;28;20183;-65
2021/12/07 10:01:56;;;;;;;20.20;9.27;;;2.30;99.90;;;;;;5092010;28;20252;-65
2021/12/07 10:04:27;;;;;;;24.63;12.53;;;2.40;99.90;;;;;;5094779;28;20159;-65
2021/12/07 10:06:54;;;;;;;26.40;12.57;;;2.40;99.90;;;;;;5089951;28;20199;-64
2021/12/07 10:09:20;;;;;;;28.07;11.70;;;2.30;99.90;;;;;;5094345;28;20159;-66
2021/12/07 10:11:50;;;;;;;23.17;13.27;;;2.40;99.90;;;;;;5095936;28;20212;-65
2021/12/07 10:14:16;;;;;;;23.07;12.27;;;2.50;99.90;;;;;;5108589;28;20150;-64
2021/12/07 10:16:48;;;;;;;27.70;12.90;;;2.40;99.90;;;;;;5094139;28;20479;-66
2021/12/07 10:19:26;;;;;;;23.17;12.00;;;2.40;99.90;;;;;;5093950;28;20465;-66
2021/12/07 10:22:02;;;;;;;25.63;11.73;;;2.50;99.90;;;;;;5093832;28;20155;-66
2021/12/07 10:24:37;;;;;;;21.37;11.47;;;2.50;99.90;;;;;;5094149;28;20213;-66
2021/12/07 10:27:03;;;;;;;20.90;11.70;;;2.50;99.90;;;;;;5089075;28;20661;-65
2021/12/07 10:29:29;;;;;;;24.43;11.90;;;2.50;99.90;;;;;;5089955;28;20697;-65
2021/12/07 10:32:01;;;;;;;25.13;12.70;;;2.60;99.90;;;;;;5094409;28;20191;-64
2021/12/07 10:34:33;;;;;;;24.00;12.90;;;2.70;99.90;;;;;;5087719;28;20218;-65
2021/12/07 10:37:17;;;;;;;20.63;12.33;;;2.80;99.90;;;;;;5073328;28;20167;-64
2021/12/07 10:39:46;;;;;;;26.57;12.63;;;2.80;99.90;;;;;;5072817;28;20315;-67
2021/12/07 10:42:16;;;;;;;28.23;13.07;;;2.80;99.90;;;;;;5072936;28;20182;-66
2021/12/07 10:44:42;;;;;;;27.47;12.57;;;2.80;99.90;;;;;;5073560;28;20170;-65
2021/12/07 10:47:08;;;;;;;22.40;11.67;;;2.90;99.90;;;;;;5067902;28;20305;-64
2021/12/07 10:49:37;;;;;;;22.80;11.67;;;2.90;99.90;;;;;;5073611;28;20167;-65
2021/12/07 10:52:02;;;;;;;26.77;12.07;;;2.90;99.90;;;;;;5079256;28;20182;-66
2021/12/07 10:54:32;;;;;;;23.87;12.87;;;2.90;99.90;;;;;;5093472;28;20171;-66
2021/12/07 10:56:59;;;;;;;24.87;13.23;;;2.90;99.90;;;;;;5093569;28;20503;-66
2021/12/07 10:59:26;;;;;;;22.97;13.07;;;3.00;99.90;;;;;;5075328;28;20178;-64
2021/12/07 11:01:55;;;;;;;25.00;12.23;;;3.20;99.90;;;;;;5093692;28;20182;-65
2021/12/07 11:04:31;;;;;;;24.30;13.67;;;3.30;99.90;;;;;;5089999;28;20197;-64
2021/12/07 11:07:21;;;;;;;29.20;13.33;;;3.50;99.90;;;;;;5093140;28;20244;-65
2021/12/07 11:10:10;;;;;;;23.47;12.60;;;3.40;99.90;;;;;;5085453;28;20258;-64
2021/12/07 11:12:58;;;;;;;25.53;12.97;;;3.50;99.90;;;;;;5072927;28;20221;-65
2021/12/07 11:15:28;;;;;;;24.37;12.57;;;3.50;99.90;;;;;;5072920;28;20160;-65
2021/12/07 11:18:07;;;;;;;24.03;12.90;;;3.50;99.90;;;;;;5065553;28;20173;-65
2021/12/07 11:20:33;;;;;;;20.20;10.93;;;3.60;99.90;;;;;;5073118;28;20192;-67
2021/12/07 11:23:08;;;;;;;20.40;9.27;;;3.50;99.90;;;;;;5054796;28;20192;-65
2021/12/07 11:31:14;;;;;;;22.60;10.13;;;3.60;99.90;;;;;;5072665;28;20205;-66
2021/12/07 11:33:40;;;;;;;24.30;12.83;;;3.40;99.90;;;;;;5072716;28;20195;-64
2021/12/07 11:36:25;;;;;;;21.57;12.00;;;3.50;99.90;;;;;;5073434;28;20615;-68
2021/12/07 11:38:52;;;;;;;19.57;10.97;;;3.50;99.90;;;;;;5073359;28;20187;-64
2021/12/07 11:41:27;;;;;;;19.43;11.17;;;3.50;99.90;;;;;;5073016;28;20174;-66
2021/12/07 11:43:57;;;;;;;23.10;11.83;;;3.40;99.90;;;;;;5073008;28;20191;-65
2021/12/07 11:46:25;;;;;;;21.37;11.07;;;3.40;99.90;;;;;;5073413;28;20202;-65
2021/12/07 11:49:05;;;;;;;24.80;12.87;;;3.40;99.90;;;;;;5073238;28;20195;-65
2021/12/07 11:51:31;;;;;;;20.17;11.63;;;3.40;99.90;;;;;;5078559;28;20326;-68
2021/12/07 11:53:56;;;;;;;26.27;12.13;;;3.50;99.90;;;;;;5082069;28;20174;-66
2021/12/07 11:56:22;;;;;;;21.77;11.97;;;3.40;99.90;;;;;;5080149;28;20168;-66
2021/12/07 11:58:48;;;;;;;22.53;13.13;;;3.40;99.90;;;;;;5078361;28;20180;-66
2021/12/07 12:01:14;;;;;;;25.23;12.67;;;3.50;99.90;;;;;;5076434;28;20166;-66
2021/12/07 12:03:39;;;;;;;19.77;11.53;;;3.40;99.90;;;;;;5076261;28;20178;-65
2021/12/07 12:06:05;;;;;;;22.47;11.93;;;3.50;99.90;;;;;;5076054;28;20631;-66
2021/12/07 12:08:32;;;;;;;25.90;12.57;;;3.40;99.90;;;;;;5082157;28;20668;-67
2021/12/07 12:11:05;;;;;;;22.83;13.43;;;3.40;99.90;;;;;;5086785;28;20500;-66
2021/12/07 12:13:55;;;;;;;22.23;12.07;;;3.50;99.90;;;;;;5076394;28;20174;-66
2021/12/07 12:16:28;;;;;;;20.73;11.97;;;3.50;99.90;;;;;;5072039;28;20305;-68
2021/12/07 12:19:12;;;;;;;22.40;11.83;;;3.50;99.90;;;;;;5076058;28;20169;-65
2021/12/07 12:21:49;;;;;;;22.73;12.23;;;3.60;99.90;;;;;;5072704;28;20619;-66
2021/12/07 12:24:35;;;;;;;22.70;12.60;;;3.60;99.90;;;;;;5075609;28;20155;-66
2021/12/07 12:27:15;;;;;;;15.57;9.13;;;3.70;99.90;;;;;;5075744;28;20284;-67
2021/12/07 12:29:43;;;;;;;15.87;8.77;;;3.70;99.90;;;;;;5076011;28;20168;-67
2021/12/07 12:32:09;;;;;;;19.33;11.37;;;3.70;99.90;;;;;;5069520;28;20337;-65
2021/12/07 12:34:46;;;;;;;18.70;9.57;;;3.70;99.90;;;;;;5077751;28;20225;-66
2021/12/07 12:37:21;;;;;;;24.47;11.87;;;3.70;99.90;;;;;;5095827;28;20168;-66
2021/12/07 12:40:00;;;;;;;24.83;13.60;;;3.70;99.90;;;;;;5086980;28;20178;-67
2021/12/07 12:42:40;;;;;;;28.43;13.17;;;3.70;99.90;;;;;;5095996;28;20162;-67
2021/12/07 12:45:22;;;;;;;26.77;13.10;;;3.70;99.90;;;;;;5095855;28;20304;-66
2021/12/07 12:48:17;;;;;;;23.83;12.87;;;3.70;99.90;;;;;;5096261;28;20638;-66
2021/12/07 12:50:42;;;;;;;25.10;15.63;;;3.70;99.90;;;;;;5095492;28;20686;-67
2021/12/07 12:53:12;;;;;;;29.37;15.97;;;3.60;99.90;;;;;;5087607;28;20250;-66
2021/12/07 12:55:51;;;;;;;27.23;14.50;;;3.70;99.90;;;;;;5095736;28;20170;-65
2021/12/07 12:58:22;;;;;;;28.43;12.93;;;3.70;99.90;;;;;;5095307;28;20215;-64
2021/12/07 13:00:59;;;;;;;31.48;16.65;;;3.70;99.90;;;;;;5077257;28;20775;-66
2021/12/07 13:03:25;;;;;;;24.23;10.57;;;3.70;99.90;;;;;;5095197;28;20174;-67
2021/12/07 13:06:01;;;;;;;19.37;11.27;;;3.60;99.90;;;;;;5095842;28;20167;-66
2021/12/07 13:08:27;;;;;;;19.33;10.60;;;3.60;99.90;;;;;;5077505;28;20176;-66
2021/12/07 13:11:04;;;;;;;25.87;10.57;;;3.60;99.90;;;;;;5075497;28;20549;-66
2021/12/07 13:13:33;;;;;;;25.20;12.87;;;3.60;99.90;;;;;;5076062;28;20168;-66
2021/12/07 13:16:11;;;;;;;28.93;13.77;;;3.70;99.90;;;;;;5065648;28;20263;-72
2021/12/07 13:18:40;;;;;;;22.70;13.10;;;3.60;99.90;;;;;;5055038;28;20169;-66
2021/12/07 13:21:26;;;;;;;23.00;12.97;;;3.70;99.90;;;;;;5055288;28;20179;-67
2021/12/07 13:24:07;;;;;;;24.87;12.93;;;3.60;99.90;;;;;;5064807;28;20228;-66
2021/12/07 13:26:45;;;;;;;23.77;12.80;;;3.60;99.90;;;;;;5094639;28;20201;-66
2021/12/07 13:29:25;;;;;;;24.37;12.60;;;3.50;99.90;;;;;;5095548;28;20207;-66
2021/12/07 13:32:02;;;;;;;27.80;13.93;;;3.50;99.90;;;;;;5095761;28;20190;-66
2021/12/07 13:34:34;;;;;;;25.70;12.77;;;3.50;99.90;;;;;;5070348;28;20230;-69
2021/12/07 13:37:03;;;;;;;22.77;12.67;;;3.60;99.90;;;;;;5077362;28;20180;-66
2021/12/07 13:39:29;;;;;;;26.67;13.67;;;3.60;99.90;;;;;;5078830;28;20188;-66
2021/12/07 13:42:20;;;;;;;24.93;11.93;;;3.60;99.90;;;;;;5080106;28;20206;-66
2021/12/07 13:44:54;;;;;;;27.33;13.93;;;3.60;99.90;;;;;;5075567;28;20193;-67
2021/12/07 13:47:35;;;;;;;70.37;33.77;;;3.60;99.90;;;;;;5074985;28;20215;-66
2021/12/07 13:50:03;;;;;;;20.77;11.30;;;3.60;99.90;;;;;;5079926;28;20184;-65
2021/12/07 13:52:33;;;;;;;24.17;12.77;;;3.60;99.90;;;;;;5078944;28;20268;-68
2021/12/07 13:55:01;;;;;;;26.00;10.77;;;3.50;99.90;;;;;;5077374;28;20195;-69
2021/12/07 13:57:34;;;;;;;31.17;12.87;;;3.50;99.90;;;;;;5079873;28;20210;-71
2021/12/07 14:00:09;;;;;;;26.23;13.60;;;3.50;99.90;;;;;;5077864;28;20641;-67
2021/12/07 14:02:35;;;;;;;26.43;14.07;;;3.50;99.90;;;;;;5078856;28;20262;-66
2021/12/07 14:05:08;;;;;;;27.80;14.60;;;3.60;99.90;;;;;;5074800;28;20194;-66
2021/12/07 14:07:35;;;;;;;25.20;14.20;;;3.60;99.90;;;;;;5083712;28;20652;-65
2021/12/07 14:10:21;;;;;;;26.20;12.50;;;3.60;99.90;;;;;;5081432;28;20658;-65
2021/12/07 14:12:49;;;;;;;23.17;11.97;;;3.50;99.90;;;;;;5079258;28;20269;-67
2021/12/07 14:15:19;;;;;;;30.20;15.03;;;3.60;99.90;;;;;;5076251;28;20171;-67
2021/12/07 14:17:48;;;;;;;24.47;13.63;;;3.60;99.90;;;;;;5071126;28;20304;-67
2021/12/07 14:20:25;;;;;;;26.93;14.13;;;3.60;99.90;;;;;;5072263;28;20259;-68
2021/12/07 14:22:50;;;;;;;26.53;15.23;;;3.60;99.90;;;;;;5077738;28;20186;-67
2021/12/07 14:25:17;;;;;;;25.23;13.23;;;3.60;99.90;;;;;;5076972;28;20521;-66
2021/12/07 14:27:47;;;;;;;25.63;13.90;;;3.50;99.90;;;;;;5077011;28;20277;-68
2021/12/07 14:30:14;;;;;;;22.40;12.30;;;3.50;99.90;;;;;;5077869;28;20279;-67
2021/12/07 14:32:42;;;;;;;26.47;13.87;;;3.60;99.90;;;;;;5077842;28;20201;-66
2021/12/07 14:35:07;;;;;;;27.97;15.07;;;3.60;99.90;;;;;;5079226;28;20234;-66
2021/12/07 14:37:33;;;;;;;29.43;15.40;;;3.60;99.90;;;;;;5075355;28;20271;-67
2021/12/07 14:39:59;;;;;;;26.67;14.43;;;3.60;99.90;;;;;;5076925;28;20236;-67
2021/12/07 14:42:24;;;;;;;24.13;12.43;;;3.60;99.90;;;;;;5074588;28;20664;-66